sensor_id;sensor_type;location;lat;lon;timestamp;pressure;altitude;pressure_sealevel;temperature;humidity
39197;BME280;42889;51.112;13.772;2023-01-31T00:01:35;99030.34;;;2.08;100.00
39197;BME280;42889;51.112;13.772;2023-01-31T00:04:04;99030.91;;;2.00;100.00
39197;BME280;42889;51.112;13.772;2023-01-31T00:06:33;99024.22;;;1.95;100.00
39197;BME280;42889;51.112;13.772;2023-01-31T00:09:02;99030.91;;;2.00;100.00
39197;BME280;42889;51.112;13.772;2023-01-31T00:11:29;99028.53;;;2.08;100.00
39197;BME280;42889;51.112;13.772;2023-01-31T00:14:00;99027.81;;;2.06;100.00
39197;BME280;42889;51.112;13.772;2023-01-31T00:16:27;99038.75;;;2.02;100.00
39197;BME280;42889;51.112;13.772;2023-01-31T00:18:54;99039.16;;;1.96;100.00
39197;BME280;42889;51.112;13.772;2023-01-31T00:21:26;99045.31;;;1.96;100.00
39197;BME280;42889;51.112;13.772;2023-01-31T00:23:54;99038.31;;;1.95;100.00
39197;BME280;42889;51.112;13.772;2023-01-31T00:28:50;99038.22;;;2.09;100.00
39197;BME280;42889;51.112;13.772;2023-01-31T00:31:19;99042.44;;;2.12;100.00
39197;BME280;42889;51.112;13.772;2023-01-31T00:33:48;99043.50;;;2.22;100.00
39197;BME280;42889;51.112;13.772;2023-01-31T00:36:26;99049.66;;;2.23;100.00
39197;BME280;42889;51.112;13.772;2023-01-31T00:38:55;99044.88;;;2.28;100.00
39197;BME280;42889;51.112;13.772;2023-01-31T00:41:23;99045.59;;;2.30;100.00
39197;BME280;42889;51.112;13.772;2023-01-31T00:43:50;99048.91;;;2.33;100.00
39197;BME280;42889;51.112;13.772;2023-01-31T00:46:18;99049.19;;;2.42;100.00
39197;BME280;42889;51.112;13.772;2023-01-31T00:48:46;99047.50;;;2.41;100.00
39197;BME280;42889;51.112;13.772;2023-01-31T00:51:13;99057.06;;;2.43;100.00
39197;BME280;42889;51.112;13.772;2023-01-31T00:53:40;99054.84;;;2.37;100.00
39197;BME280;42889;51.112;13.772;2023-01-31T00:56:09;99051.97;;;2.40;100.00
39197;BME280;42889;51.112;13.772;2023-01-31T00:58:36;99067.28;;;2.36;100.00
39197;BME280;42889;51.112;13.772;2023-01-31T01:01:14;99057.50;;;2.37;100.00
39197;BME280;42889;51.112;13.772;2023-01-31T01:03:44;99071.72;;;2.36;100.00
39197;BME280;42889;51.112;13.772;2023-01-31T01:06:12;99069.69;;;2.40;100.00
39197;BME280;42889;51.112;13.772;2023-01-31T01:08:41;99088.72;;;2.33;100.00
39197;BME280;42889;51.112;13.772;2023-01-31T01:11:37;99092.13;;;2.23;100.00
39197;BME280;42889;51.112;13.772;2023-01-31T01:14:04;99093.53;;;2.16;100.00
39197;BME280;42889;51.112;13.772;2023-01-31T01:16:34;99097.34;;;1.99;100.00
39197;BME280;42889;51.112;13.772;2023-01-31T01:19:08;99106.59;;;1.93;100.00
39197;BME280;42889;51.112;13.772;2023-01-31T01:21:36;99100.75;;;1.88;100.00
39197;BME280;42889;51.112;13.772;2023-01-31T01:24:07;99093.63;;;1.89;100.00
39197;BME280;42889;51.112;13.772;2023-01-31T01:26:34;99100.94;;;1.85;100.00
39197;BME280;42889;51.112;13.772;2023-01-31T01:29:03;99089.47;;;1.84;100.00
39197;BME280;42889;51.112;13.772;2023-01-31T01:31:30;99114.44;;;1.82;100.00
39197;BME280;42889;51.112;13.772;2023-01-31T01:34:22;99115.06;;;1.73;100.00
39197;BME280;42889;51.112;13.772;2023-01-31T01:36:54;99127.88;;;1.66;100.00
39197;BME280;42889;51.112;13.772;2023-01-31T01:39:20;99118.44;;;1.62;100.00
39197;BME280;42889;51.112;13.772;2023-01-31T01:41:47;99129.88;;;1.63;100.00
39197;BME280;42889;51.112;13.772;2023-01-31T01:50:13;99130.81;;;1.49;100.00
39197;BME280;42889;51.112;13.772;2023-01-31T01:52:49;99129.00;;;1.49;100.00
39197;BME280;42889;51.112;13.772;2023-01-31T01:55:41;99140.91;;;1.56;100.00
39197;BME280;42889;51.112;13.772;2023-01-31T02:00:46;99156.28;;;1.64;100.00
39197;BME280;42889;51.112;13.772;2023-01-31T02:03:13;99160.34;;;1.70;100.00
39197;BME280;42889;51.112;13.772;2023-01-31T02:05:46;99176.19;;;1.71;100.00
39197;BME280;42889;51.112;13.772;2023-01-31T02:08:17;99161.31;;;1.69;100.00
39197;BME280;42889;51.112;13.772;2023-01-31T02:10:58;99168.31;;;1.70;100.00
39197;BME280;42889;51.112;13.772;2023-01-31T02:13:28;99164.91;;;1.68;100.00
39197;BME280;42889;51.112;13.772;2023-01-31T02:15:55;99150.56;;;1.70;100.00
39197;BME280;42889;51.112;13.772;2023-01-31T02:18:23;99153.47;;;1.67;100.00
39197;BME280;42889;51.112;13.772;2023-01-31T02:38:08;99195.88;;;1.94;100.00
39197;BME280;42889;51.112;13.772;2023-01-31T02:40:49;99198.50;;;1.94;100.00
39197;BME280;42889;51.112;13.772;2023-01-31T02:46:12;99198.28;;;1.97;100.00
39197;BME280;42889;51.112;13.772;2023-01-31T02:49:06;99200.03;;;1.98;100.00
39197;BME280;42889;51.112;13.772;2023-01-31T02:51:42;99203.59;;;1.97;100.00
39197;BME280;42889;51.112;13.772;2023-01-31T02:54:32;99198.75;;;2.04;100.00
39197;BME280;42889;51.112;13.772;2023-01-31T02:57:20;99208.09;;;2.09;100.00
39197;BME280;42889;51.112;13.772;2023-01-31T02:59:48;99217.88;;;2.09;100.00
39197;BME280;42889;51.112;13.772;2023-01-31T03:02:16;99213.72;;;2.05;100.00
39197;BME280;42889;51.112;13.772;2023-01-31T03:04:43;99228.50;;;2.09;100.00
39197;BME280;42889;51.112;13.772;2023-01-31T03:07:16;99226.56;;;2.11;100.00
39197;BME280;42889;51.112;13.772;2023-01-31T03:18:21;99258.22;;;2.14;100.00
39197;BME280;42889;51.112;13.772;2023-01-31T03:20:58;99260.97;;;2.13;100.00
39197;BME280;42889;51.112;13.772;2023-01-31T03:23:30;99274.25;;;2.13;100.00
39197;BME280;42889;51.112;13.772;2023-01-31T03:26:01;99272.00;;;2.06;100.00
39197;BME280;42889;51.112;13.772;2023-01-31T03:28:31;99267.06;;;2.15;100.00
39197;BME280;42889;51.112;13.772;2023-01-31T03:31:03;99279.44;;;2.14;100.00
39197;BME280;42889;51.112;13.772;2023-01-31T03:33:34;99288.59;;;2.10;100.00
39197;BME280;42889;51.112;13.772;2023-01-31T03:47:11;99294.09;;;2.07;100.00
39197;BME280;42889;51.112;13.772;2023-01-31T03:49:41;99297.69;;;2.06;100.00
39197;BME280;42889;51.112;13.772;2023-01-31T03:52:11;99279.22;;;2.04;100.00
39197;BME280;42889;51.112;13.772;2023-01-31T03:54:46;99287.50;;;2.00;100.00
39197;BME280;42889;51.112;13.772;2023-01-31T03:57:17;99302.56;;;1.99;100.00
39197;BME280;42889;51.112;13.772;2023-01-31T03:59:46;99307.44;;;1.93;100.00
39197;BME280;42889;51.112;13.772;2023-01-31T04:02:20;99303.16;;;1.90;100.00
39197;BME280;42889;51.112;13.772;2023-01-31T04:04:58;99309.59;;;1.86;100.00
39197;BME280;42889;51.112;13.772;2023-01-31T04:07:25;99313.03;;;1.88;100.00
39197;BME280;42889;51.112;13.772;2023-01-31T04:09:52;99309.81;;;1.83;100.00
39197;BME280;42889;51.112;13.772;2023-01-31T04:12:19;99312.78;;;1.78;100.00
39197;BME280;42889;51.112;13.772;2023-01-31T04:14:46;99316.84;;;1.70;100.00
39197;BME280;42889;51.112;13.772;2023-01-31T04:17:13;99317.63;;;1.72;100.00
39197;BME280;42889;51.112;13.772;2023-01-31T04:19:39;99319.63;;;1.68;100.00
39197;BME280;42889;51.112;13.772;2023-01-31T04:22:06;99319.16;;;1.62;100.00
39197;BME280;42889;51.112;13.772;2023-01-31T04:24:33;99317.66;;;1.57;100.00
39197;BME280;42889;51.112;13.772;2023-01-31T04:26:59;99330.34;;;1.52;100.00
39197;BME280;42889;51.112;13.772;2023-01-31T04:29:26;99334.13;;;1.48;100.00
39197;BME280;42889;51.112;13.772;2023-01-31T04:31:52;99339.44;;;1.48;100.00
39197;BME280;42889;51.112;13.772;2023-01-31T04:34:20;99348.56;;;1.30;100.00
39197;BME280;42889;51.112;13.772;2023-01-31T04:36:47;99346.69;;;1.18;100.00
39197;BME280;42889;51.112;13.772;2023-01-31T04:39:13;99348.66;;;1.14;100.00
39197;BME280;42889;51.112;13.772;2023-01-31T04:41:41;99344.59;;;1.09;100.00
39197;BME280;42889;51.112;13.772;2023-01-31T04:44:07;99346.00;;;1.14;100.00
39197;BME280;42889;51.112;13.772;2023-01-31T04:46:34;99352.72;;;1.20;100.00
39197;BME280;42889;51.112;13.772;2023-01-31T04:49:02;99355.88;;;1.26;100.00
39197;BME280;42889;51.112;13.772;2023-01-31T04:51:28;99357.19;;;1.34;100.00
39197;BME280;42889;51.112;13.772;2023-01-31T04:53:55;99359.94;;;1.32;100.00
39197;BME280;42889;51.112;13.772;2023-01-31T04:56:22;99352.63;;;1.36;100.00
39197;BME280;42889;51.112;13.772;2023-01-31T04:58:48;99351.09;;;1.46;100.00
39197;BME280;42889;51.112;13.772;2023-01-31T05:01:15;99356.13;;;1.50;100.00
39197;BME280;42889;51.112;13.772;2023-01-31T05:03:42;99355.06;;;1.53;100.00
39197;BME280;42889;51.112;13.772;2023-01-31T05:06:09;99356.59;;;1.57;100.00
39197;BME280;42889;51.112;13.772;2023-01-31T05:08:35;99357.66;;;1.54;100.00
39197;BME280;42889;51.112;13.772;2023-01-31T05:11:04;99357.25;;;1.61;100.00
39197;BME280;42889;51.112;13.772;2023-01-31T05:13:33;99349.47;;;1.72;100.00
39197;BME280;42889;51.112;13.772;2023-01-31T05:16:08;99366.59;;;1.80;100.00
39197;BME280;42889;51.112;13.772;2023-01-31T05:18:36;99353.31;;;1.80;100.00
39197;BME280;42889;51.112;13.772;2023-01-31T05:21:05;99362.38;;;1.91;100.00
39197;BME280;42889;51.112;13.772;2023-01-31T05:23:32;99368.53;;;1.91;100.00
39197;BME280;42889;51.112;13.772;2023-01-31T05:25:59;99366.84;;;1.90;100.00
39197;BME280;42889;51.112;13.772;2023-01-31T05:28:25;99378.72;;;1.84;100.00
39197;BME280;42889;51.112;13.772;2023-01-31T05:30:53;99380.97;;;1.91;100.00
39197;BME280;42889;51.112;13.772;2023-01-31T05:33:19;99377.69;;;1.87;100.00
39197;BME280;42889;51.112;13.772;2023-01-31T05:35:47;99379.28;;;1.90;100.00
39197;BME280;42889;51.112;13.772;2023-01-31T05:38:14;99387.25;;;1.75;100.00
39197;BME280;42889;51.112;13.772;2023-01-31T05:40:41;99377.75;;;1.85;100.00
39197;BME280;42889;51.112;13.772;2023-01-31T05:43:07;99379.38;;;1.88;100.00
39197;BME280;42889;51.112;13.772;2023-01-31T05:45:34;99381.75;;;1.93;100.00
39197;BME280;42889;51.112;13.772;2023-01-31T05:48:01;99378.41;;;1.89;100.00
39197;BME280;42889;51.112;13.772;2023-01-31T05:50:29;99373.84;;;1.91;100.00
39197;BME280;42889;51.112;13.772;2023-01-31T05:53:07;99377.47;;;1.90;100.00
39197;BME280;42889;51.112;13.772;2023-01-31T05:55:34;99377.84;;;1.84;100.00
39197;BME280;42889;51.112;13.772;2023-01-31T05:58:01;99375.31;;;1.82;100.00
39197;BME280;42889;51.112;13.772;2023-01-31T06:00:27;99379.09;;;1.78;100.00
39197;BME280;42889;51.112;13.772;2023-01-31T06:02:57;99379.41;;;1.74;100.00
39197;BME280;42889;51.112;13.772;2023-01-31T06:05:26;99374.19;;;1.72;100.00
39197;BME280;42889;51.112;13.772;2023-01-31T06:07:53;99378.25;;;1.78;100.00
39197;BME280;42889;51.112;13.772;2023-01-31T06:10:19;99368.50;;;1.78;100.00
39197;BME280;42889;51.112;13.772;2023-01-31T06:12:47;99381.19;;;1.73;100.00
39197;BME280;42889;51.112;13.772;2023-01-31T06:15:14;99365.00;;;1.78;100.00
39197;BME280;42889;51.112;13.772;2023-01-31T06:17:40;99373.06;;;1.76;100.00
39197;BME280;42889;51.112;13.772;2023-01-31T06:20:08;99377.59;;;1.74;100.00
39197;BME280;42889;51.112;13.772;2023-01-31T06:22:34;99380.81;;;1.79;100.00
39197;BME280;42889;51.112;13.772;2023-01-31T06:25:02;99384.31;;;1.80;100.00
39197;BME280;42889;51.112;13.772;2023-01-31T06:27:31;99384.22;;;1.81;100.00
39197;BME280;42889;51.112;13.772;2023-01-31T06:29:58;99386.41;;;1.75;100.00
39197;BME280;42889;51.112;13.772;2023-01-31T06:32:25;99383.16;;;1.84;100.00
39197;BME280;42889;51.112;13.772;2023-01-31T06:34:52;99385.94;;;1.82;100.00
39197;BME280;42889;51.112;13.772;2023-01-31T06:37:18;99387.63;;;1.83;100.00
39197;BME280;42889;51.112;13.772;2023-01-31T06:39:45;99397.75;;;1.91;100.00
39197;BME280;42889;51.112;13.772;2023-01-31T06:42:11;99396.72;;;1.94;100.00
39197;BME280;42889;51.112;13.772;2023-01-31T06:44:38;99407.16;;;1.82;100.00
39197;BME280;42889;51.112;13.772;2023-01-31T06:47:05;99392.94;;;1.83;100.00
39197;BME280;42889;51.112;13.772;2023-01-31T06:49:31;99409.03;;;1.80;100.00
39197;BME280;42889;51.112;13.772;2023-01-31T06:51:58;99392.47;;;1.77;100.00
39197;BME280;42889;51.112;13.772;2023-01-31T06:54:25;99393.72;;;1.71;100.00
39197;BME280;42889;51.112;13.772;2023-01-31T06:56:51;99389.03;;;1.75;100.00
39197;BME280;42889;51.112;13.772;2023-01-31T06:59:19;99401.84;;;1.68;100.00
39197;BME280;42889;51.112;13.772;2023-01-31T07:01:45;99398.81;;;1.74;100.00
39197;BME280;42889;51.112;13.772;2023-01-31T07:04:12;99404.03;;;1.76;100.00
39197;BME280;42889;51.112;13.772;2023-01-31T07:06:39;99413.59;;;1.78;100.00
39197;BME280;42889;51.112;13.772;2023-01-31T07:09:06;99407.34;;;1.79;100.00
39197;BME280;42889;51.112;13.772;2023-01-31T07:11:33;99410.94;;;1.78;100.00
39197;BME280;42889;51.112;13.772;2023-01-31T07:13:59;99415.84;;;1.84;100.00
39197;BME280;42889;51.112;13.772;2023-01-31T07:16:26;99420.22;;;1.85;100.00
39197;BME280;42889;51.112;13.772;2023-01-31T07:18:53;99424.56;;;1.87;100.00
39197;BME280;42889;51.112;13.772;2023-01-31T07:21:21;99424.56;;;1.87;100.00
39197;BME280;42889;51.112;13.772;2023-01-31T07:23:48;99420.88;;;1.89;100.00
39197;BME280;42889;51.112;13.772;2023-01-31T07:26:16;99418.72;;;1.81;100.00
39197;BME280;42889;51.112;13.772;2023-01-31T07:28:43;99422.97;;;1.84;100.00
39197;BME280;42889;51.112;13.772;2023-01-31T07:31:13;99411.41;;;1.85;100.00
39197;BME280;42889;51.112;13.772;2023-01-31T07:33:40;99425.63;;;1.84;100.00
39197;BME280;42889;51.112;13.772;2023-01-31T07:36:12;99427.03;;;1.90;100.00
39197;BME280;42889;51.112;13.772;2023-01-31T07:38:39;99415.84;;;1.84;100.00
39197;BME280;42889;51.112;13.772;2023-01-31T07:41:06;99436.34;;;1.82;100.00
39197;BME280;42889;51.112;13.772;2023-01-31T07:43:35;99425.63;;;1.84;100.00
39197;BME280;42889;51.112;13.772;2023-01-31T07:46:05;99434.25;;;1.88;100.00
39197;BME280;42889;51.112;13.772;2023-01-31T07:48:34;99439.56;;;1.88;100.00
39197;BME280;42889;51.112;13.772;2023-01-31T07:51:01;99446.69;;;1.87;100.00
39197;BME280;42889;51.112;13.772;2023-01-31T07:53:30;99438.59;;;1.89;100.00
39197;BME280;42889;51.112;13.772;2023-01-31T07:56:12;99430.34;;;1.93;100.00
39197;BME280;42889;51.112;13.772;2023-01-31T07:58:40;99421.84;;;1.88;100.00
39197;BME280;42889;51.112;13.772;2023-01-31T08:01:24;99430.34;;;1.93;100.00
39197;BME280;42889;51.112;13.772;2023-01-31T08:04:12;99426.47;;;1.99;100.00
39197;BME280;42889;51.112;13.772;2023-01-31T08:06:48;99429.00;;;2.00;100.00
39197;BME280;42889;51.112;13.772;2023-01-31T08:09:16;99429.19;;;2.11;100.00
39197;BME280;42889;51.112;13.772;2023-01-31T08:11:43;99425.13;;;2.06;100.00
39197;BME280;42889;51.112;13.772;2023-01-31T08:14:09;99435.22;;;2.14;100.00
39197;BME280;42889;51.112;13.772;2023-01-31T08:16:36;99433.63;;;2.25;100.00
39197;BME280;42889;51.112;13.772;2023-01-31T08:19:04;99434.53;;;2.24;100.00
39197;BME280;42889;51.112;13.772;2023-01-31T08:21:30;99435.88;;;2.31;100.00
39197;BME280;42889;51.112;13.772;2023-01-31T08:23:57;99426.25;;;2.43;100.00
39197;BME280;42889;51.112;13.772;2023-01-31T08:26:24;99437.31;;;2.50;100.00
39197;BME280;42889;51.112;13.772;2023-01-31T08:28:51;99432.75;;;2.52;100.00
39197;BME280;42889;51.112;13.772;2023-01-31T08:31:23;99427.72;;;2.47;100.00
39197;BME280;42889;51.112;13.772;2023-01-31T08:33:51;99430.78;;;2.41;100.00
39197;BME280;42889;51.112;13.772;2023-01-31T08:36:19;99433.91;;;2.48;100.00
39197;BME280;42889;51.112;13.772;2023-01-31T08:38:47;99422.41;;;2.47;100.00
39197;BME280;42889;51.112;13.772;2023-01-31T08:41:15;99424.13;;;2.48;100.00
39197;BME280;42889;51.112;13.772;2023-01-31T08:43:44;99421.25;;;2.51;100.00
39197;BME280;42889;51.112;13.772;2023-01-31T08:46:27;99418.31;;;2.56;100.00
39197;BME280;42889;51.112;13.772;2023-01-31T08:48:56;99419.81;;;2.60;100.00
39197;BME280;42889;51.112;13.772;2023-01-31T08:51:23;99416.09;;;2.62;100.00
39197;BME280;42889;51.112;13.772;2023-01-31T08:53:50;99414.63;;;2.71;100.00
39197;BME280;42889;51.112;13.772;2023-01-31T08:56:17;99414.97;;;2.79;100.00
39197;BME280;42889;51.112;13.772;2023-01-31T08:58:46;99408.59;;;2.82;100.00
39197;BME280;42889;51.112;13.772;2023-01-31T09:01:15;99408.72;;;2.80;100.00
39197;BME280;42889;51.112;13.772;2023-01-31T09:03:43;99405.19;;;2.80;100.00
39197;BME280;42889;51.112;13.772;2023-01-31T09:06:15;99399.88;;;2.80;100.00
39197;BME280;42889;51.112;13.772;2023-01-31T09:08:42;99395.94;;;2.85;100.00
39197;BME280;42889;51.112;13.772;2023-01-31T09:11:09;99399.78;;;2.94;100.00
39197;BME280;42889;51.112;13.772;2023-01-31T09:13:35;99402.88;;;3.01;100.00
39197;BME280;42889;51.112;13.772;2023-01-31T09:16:04;99401.72;;;3.05;100.00
39197;BME280;42889;51.112;13.772;2023-01-31T09:18:34;99398.00;;;3.07;100.00
39197;BME280;42889;51.112;13.772;2023-01-31T09:21:06;99400.97;;;3.15;100.00
39197;BME280;42889;51.112;13.772;2023-01-31T09:23:34;99401.41;;;3.22;100.00
39197;BME280;42889;51.112;13.772;2023-01-31T09:26:01;99398.25;;;3.30;100.00
39197;BME280;42889;51.112;13.772;2023-01-31T09:28:28;99388.97;;;3.35;100.00
39197;BME280;42889;51.112;13.772;2023-01-31T09:31:04;99389.47;;;3.40;100.00
39197;BME280;42889;51.112;13.772;2023-01-31T09:33:32;99381.03;;;3.72;100.00
39197;BME280;42889;51.112;13.772;2023-01-31T09:36:03;99392.31;;;3.76;100.00
39197;BME280;42889;51.112;13.772;2023-01-31T09:38:31;99396.72;;;3.64;100.00
39197;BME280;42889;51.112;13.772;2023-01-31T09:41:00;99396.91;;;3.74;100.00
39197;BME280;42889;51.112;13.772;2023-01-31T09:43:29;99386.28;;;3.61;100.00
39197;BME280;42889;51.112;13.772;2023-01-31T09:46:00;99383.53;;;3.50;100.00
39197;BME280;42889;51.112;13.772;2023-01-31T09:48:30;99379.28;;;3.47;100.00
39197;BME280;42889;51.112;13.772;2023-01-31T09:51:01;99384.38;;;3.37;100.00
39197;BME280;42889;51.112;13.772;2023-01-31T09:53:31;99365.53;;;3.40;100.00
39197;BME280;42889;51.112;13.772;2023-01-31T10:06:53;99358.84;;;3.97;100.00
39197;BME280;42889;51.112;13.772;2023-01-31T10:12:32;99343.41;;;4.37;100.00
39197;BME280;42889;51.112;13.772;2023-01-31T10:15:05;99340.34;;;4.66;100.00
39197;BME280;42889;51.112;13.772;2023-01-31T10:17:44;99345.16;;;4.49;100.00
39197;BME280;42889;51.112;13.772;2023-01-31T10:20:20;99342.31;;;4.29;100.00
39197;BME280;42889;51.112;13.772;2023-01-31T10:22:58;99344.16;;;4.15;100.00
39197;BME280;42889;51.112;13.772;2023-01-31T10:25:51;99349.22;;;4.07;100.00
39197;BME280;42889;51.112;13.772;2023-01-31T10:28:29;99341.44;;;4.04;100.00
39197;BME280;42889;51.112;13.772;2023-01-31T10:31:02;99336.38;;;3.88;100.00
39197;BME280;42889;51.112;13.772;2023-01-31T10:36:13;99337.78;;;3.81;100.00
39197;BME280;42889;51.112;13.772;2023-01-31T10:38:57;99337.91;;;3.80;100.00
39197;BME280;42889;51.112;13.772;2023-01-31T10:44:31;99324.69;;;3.78;100.00
39197;BME280;42889;51.112;13.772;2023-01-31T10:47:00;99315.53;;;3.82;100.00
39197;BME280;42889;51.112;13.772;2023-01-31T10:49:27;99317.75;;;3.88;100.00
39197;BME280;42889;51.112;13.772;2023-01-31T10:57:41;99301.16;;;3.85;100.00
39197;BME280;42889;51.112;13.772;2023-01-31T11:00:29;99302.63;;;3.89;100.00
39197;BME280;42889;51.112;13.772;2023-01-31T11:02:58;99301.03;;;3.86;100.00
39197;BME280;42889;51.112;13.772;2023-01-31T11:05:27;99289.88;;;3.81;100.00
39197;BME280;42889;51.112;13.772;2023-01-31T11:07:56;99295.19;;;3.81;100.00
39197;BME280;42889;51.112;13.772;2023-01-31T11:10:27;99292.53;;;3.81;100.00
39197;BME280;42889;51.112;13.772;2023-01-31T11:13:00;99277.75;;;3.77;100.00
39197;BME280;42889;51.112;13.772;2023-01-31T11:15:40;99263.47;;;3.78;100.00
39197;BME280;42889;51.112;13.772;2023-01-31T11:18:14;99264.31;;;3.79;100.00
39197;BME280;42889;51.112;13.772;2023-01-31T11:20:48;99272.03;;;3.70;100.00
39197;BME280;42889;51.112;13.772;2023-01-31T11:23:21;99264.38;;;3.66;100.00
39197;BME280;42889;51.112;13.772;2023-01-31T11:25:50;99258.94;;;3.67;100.00
39197;BME280;42889;51.112;13.772;2023-01-31T11:28:26;99249.50;;;3.63;100.00
39197;BME280;42889;51.112;13.772;2023-01-31T11:30:54;99239.97;;;3.72;100.00
39197;BME280;42889;51.112;13.772;2023-01-31T11:36:15;99225.66;;;3.86;100.00
39197;BME280;42889;51.112;13.772;2023-01-31T11:38:42;99225.06;;;3.93;100.00
39197;BME280;42889;51.112;13.772;2023-01-31T11:41:33;99219.06;;;4.03;100.00
39197;BME280;42889;51.112;13.772;2023-01-31T11:44:12;99217.88;;;4.07;100.00
39197;BME280;42889;51.112;13.772;2023-01-31T11:49:38;99215.69;;;4.12;100.00
39197;BME280;42889;51.112;13.772;2023-01-31T11:52:16;99209.53;;;4.22;100.00
39197;BME280;42889;51.112;13.772;2023-01-31T11:55:05;99210.19;;;4.37;100.00
39197;BME280;42889;51.112;13.772;2023-01-31T11:57:35;99199.69;;;4.47;100.00
39197;BME280;42889;51.112;13.772;2023-01-31T12:00:18;99196.19;;;4.58;100.00
39197;BME280;42889;51.112;13.772;2023-01-31T12:02:59;99185.75;;;4.66;100.00
39197;BME280;42889;51.112;13.772;2023-01-31T12:05:43;99177.28;;;4.72;100.00
39197;BME280;42889;51.112;13.772;2023-01-31T12:08:36;99157.06;;;4.69;100.00
39197;BME280;42889;51.112;13.772;2023-01-31T12:11:05;99160.22;;;4.74;100.00
39197;BME280;42889;51.112;13.772;2023-01-31T12:13:44;99141.69;;;4.73;100.00
39197;BME280;42889;51.112;13.772;2023-01-31T12:16:11;99161.78;;;4.77;100.00
39197;BME280;42889;51.112;13.772;2023-01-31T12:18:52;99163.00;;;4.73;99.16
39197;BME280;42889;51.112;13.772;2023-01-31T12:24:05;99142.03;;;4.57;100.00
39197;BME280;42889;51.112;13.772;2023-01-31T12:26:44;99149.91;;;4.59;100.00
39197;BME280;42889;51.112;13.772;2023-01-31T12:32:24;99130.28;;;4.60;100.00
39197;BME280;42889;51.112;13.772;2023-01-31T12:37:54;99127.75;;;4.58;100.00
39197;BME280;42889;51.112;13.772;2023-01-31T12:40:36;99125.31;;;4.55;100.00
39197;BME280;42889;51.112;13.772;2023-01-31T12:56:56;99102.72;;;3.81;100.00
39197;BME280;42889;51.112;13.772;2023-01-31T12:59:48;99085.59;;;3.72;100.00
39197;BME280;42889;51.112;13.772;2023-01-31T13:05:01;99081.31;;;3.93;100.00
39197;BME280;42889;51.112;13.772;2023-01-31T13:07:41;99086.41;;;3.96;100.00
39197;BME280;42889;51.112;13.772;2023-01-31T13:10:41;99074.44;;;4.02;100.00
39197;BME280;42889;51.112;13.772;2023-01-31T13:13:48;99083.50;;;4.00;100.00
39197;BME280;42889;51.112;13.772;2023-01-31T13:16:29;99084.31;;;3.89;100.00
39197;BME280;42889;51.112;13.772;2023-01-31T13:19:02;99094.97;;;3.89;100.00
39197;BME280;42889;51.112;13.772;2023-01-31T13:21:35;99071.47;;;3.83;100.00
39197;BME280;42889;51.112;13.772;2023-01-31T13:24:11;99065.06;;;3.74;100.00
39197;BME280;42889;51.112;13.772;2023-01-31T13:26:53;99052.31;;;3.55;100.00
39197;BME280;42889;51.112;13.772;2023-01-31T13:29:26;99049.72;;;3.42;100.00
39197;BME280;42889;51.112;13.772;2023-01-31T13:34:43;99041.56;;;3.22;100.00
39197;BME280;42889;51.112;13.772;2023-01-31T13:37:17;99033.06;;;3.16;100.00
39197;BME280;42889;51.112;13.772;2023-01-31T13:39:53;99039.06;;;3.07;100.00
39197;BME280;42889;51.112;13.772;2023-01-31T13:42:22;99043.16;;;3.00;100.00
39197;BME280;42889;51.112;13.772;2023-01-31T13:44:49;99038.91;;;2.98;100.00
39197;BME280;42889;51.112;13.772;2023-01-31T13:47:21;99020.78;;;2.92;100.00
39197;BME280;42889;51.112;13.772;2023-01-31T13:52:35;99017.22;;;2.91;100.00
39197;BME280;42889;51.112;13.772;2023-01-31T13:55:11;99007.81;;;2.87;100.00
39197;BME280;42889;51.112;13.772;2023-01-31T13:57:42;99018.13;;;2.92;100.00
39197;BME280;42889;51.112;13.772;2023-01-31T14:03:06;99019.16;;;2.89;100.00
39197;BME280;42889;51.112;13.772;2023-01-31T14:13:44;99004.31;;;2.86;100.00
39197;BME280;42889;51.112;13.772;2023-01-31T14:16:34;99006.34;;;2.83;100.00
39197;BME280;42889;51.112;13.772;2023-01-31T14:30:06;98988.25;;;2.88;100.00
39197;BME280;42889;51.112;13.772;2023-01-31T14:32:47;98990.19;;;2.86;100.00
39197;BME280;42889;51.112;13.772;2023-01-31T14:37:46;98990.78;;;2.89;100.00
39197;BME280;42889;51.112;13.772;2023-01-31T14:56:56;98977.22;;;2.81;100.00
39197;BME280;42889;51.112;13.772;2023-01-31T15:02:46;98965.00;;;2.79;100.00
39197;BME280;42889;51.112;13.772;2023-01-31T15:05:17;98977.44;;;2.78;100.00
39197;BME280;42889;51.112;13.772;2023-01-31T15:13:46;98964.00;;;2.69;100.00
39197;BME280;42889;51.112;13.772;2023-01-31T15:16:33;98963.13;;;2.68;100.00
39197;BME280;42889;51.112;13.772;2023-01-31T15:21:48;98967.94;;;2.63;100.00
39197;BME280;42889;51.112;13.772;2023-01-31T15:24:19;98953.72;;;2.64;100.00
39197;BME280;42889;51.112;13.772;2023-01-31T15:26:48;98959.38;;;2.59;100.00
39197;BME280;42889;51.112;13.772;2023-01-31T15:29:22;98967.44;;;2.58;100.00
39197;BME280;42889;51.112;13.772;2023-01-31T15:32:02;98957.78;;;2.57;100.00
39197;BME280;42889;51.112;13.772;2023-01-31T15:34:31;98963.00;;;2.58;100.00
39197;BME280;42889;51.112;13.772;2023-01-31T15:37:12;98962.47;;;2.53;100.00
39197;BME280;42889;51.112;13.772;2023-01-31T15:40:00;98964.06;;;2.56;100.00
39197;BME280;42889;51.112;13.772;2023-01-31T15:42:31;98957.16;;;2.53;100.00
39197;BME280;42889;51.112;13.772;2023-01-31T15:45:20;98974.47;;;2.59;100.00
39197;BME280;42889;51.112;13.772;2023-01-31T15:48:04;98970.97;;;2.58;100.00
39197;BME280;42889;51.112;13.772;2023-01-31T15:50:33;98979.03;;;2.57;100.00
39197;BME280;42889;51.112;13.772;2023-01-31T15:53:11;98954.28;;;2.56;100.00
39197;BME280;42889;51.112;13.772;2023-01-31T15:55:40;98967.03;;;2.51;100.00
39197;BME280;42889;51.112;13.772;2023-01-31T15:58:19;98980.97;;;2.55;100.00